CheckWX is a tool to help pilots better visualize weather data.  It is not intended as a substitute for an official pre-flight weather briefing.

20:33:33 UTC

KMTC TAF
Selfridge Angb Airport
Mount Clemens, Michigan, USA
TAF AMD KMTC 221844Z 2218/2323 33012G22KT 9999 BKN020 620305 QNH2986INS BECMG 2223/2224 33012KT 9999 BKN020 620203 QNH3001INS BECMG 2304/2305 32009KT 9999 FEW020 QNH3008INS WND 26006KT AFT 2321 TX06/2317Z TNM04/2311Z

Mar-22@
18:00 UTC

Mar-22 @ 18:00 UTC

Mar-22@
23:00 UTC

Mar-22 @ 23:00 UTC

TAF AMD KMTC 221844Z 2218/2323 33012G22KT 9999 BKN020 620305 QNH2986INS
Wind
  • 330° at 12 KTS
  • {Gusting to 22 KTS
Cloud Levels
  • Broken at 2,000' AGL
Icing
Light icing in cloud expected at 3,000' AGL extending to 8,000' AGL

Mar-22@
23:00 UTC

Mar-22 @ 23:00 UTC

Mar-23@
04:00 UTC

Mar-23 @ 04:00 UTC

BECMG 2223/2224 33012KT 9999 BKN020 620203 QNH3001INS

Becoming

Becoming Conditions expected by Sat, Mar 23, 2019 @ 00:00 UTC

Wind
  • 330° at 12 KTS
Cloud Levels
  • Broken at 2,000' AGL
Icing
Light icing in cloud expected at 2,000' AGL extending to 5,000' AGL

Mar-23@
04:00 UTC

Mar-23 @ 04:00 UTC

Mar-23@
23:00 UTC

Mar-23 @ 23:00 UTC

BECMG 2304/2305 32009KT 9999 FEW020 QNH3008INS WND 26006KT AFT 2321 TX06/2317Z TNM04/2311Z

Becoming

Becoming Conditions expected by Sat, Mar 23, 2019 @ 05:00 UTC

Wind
  • 320° at 9 KTS
Cloud Levels
  • Few at 2,000' AGL